X  CloseMetar Aviation Weather Data     ESNL Lycksele

Temperature

12°C Temperature

11°C Dewpoint

94% Humidity



Wind

11 KM/H

 7 MPH

 3 M/S

 6 KTS



300°
West North
West
Current Conditions

Partly Cloudy Partly Cloudy
Pressure 1013.92 (hPa) - 29.94 (in)
Visibility 6.2 (mi) - 10 (km)
Airport
Airport-code ESNL

Location Lycksele 35 (km)

Metar:
ESNL 231950Z AUTO 30006KT 9999 FEW022/// BKN029/// BKN039/// 12/11 Q1014

Time: 2019-08-23 21:50